Portada
METAR-TAF:

METAR-TAF

Aeropuertos :

Aeropuerto Internacional de Libreville-Leon M'ba

Libreville, Gabón

latitud: 00-27N, longitud: 009-25E, altitud: 12 m

Observación

El informe se hizo hace 27 minutos, a las 07:00 UTC
Viento 10 kt del sur
Temperatura 24°C
Humedad 89%
Presión 1014 hPa
Visibilidad: 8000 m
Nubes dispersas a una altura de 1100 ft

METAR: FOOL 210700Z 17010KT 8000 SCT011 24/22 Q1014 NOSIG

Hora: 08:27 (07:27 UTC)

Pronóstico

El informe se hizo hace 2 horas y 27 minutos, a las 05:00 UTC
Pronóstico válido del 21 a las 06 UTC al 22 a las 12 UTC
Viento 8 kt del sur
Visibilidad: 8000 m
Nubes dispersas a una altura de 800 ft
Cielo nuboso a una altura de 2800 ft

TAF: FOOL 210500Z 2106/2212 17008KT 8000 SCT008 BKN028

Observaciones y pronósticos meteorológicos de más de 4000 aeropuertos (mensajes METAR y TAF).

Los puntos amarillos y rojos representan las estaciones disponibles.

Ponga el ratón en el punto deseado para ver el nombre de la estación.

Haga clic para ver las observaciones y los pronósticos meteorológicos.

Para cambiar el mapa : haga clic en los botones verdes con una cruz de color negro para hacer un zoom, en el botón verde con un guión para alejar o en las flechas verdes para mapas adyacentes.


METAR-TAF: